sensor_id;sensor_type;location;lat;lon;timestamp;P1;durP1;ratioP1;P2;durP2;ratioP2
78484;SDS011;67773;50.806;8.776;2023-04-24T00:00:11;2.77;;;1.07;;
78484;SDS011;67773;50.806;8.776;2023-04-24T00:02:40;2.63;;;1.02;;
78484;SDS011;67773;50.806;8.776;2023-04-24T00:05:11;1.52;;;0.88;;
78484;SDS011;67773;50.806;8.776;2023-04-24T00:07:37;2.25;;;0.77;;
78484;SDS011;67773;50.806;8.776;2023-04-24T00:10:02;2.80;;;1.00;;
78484;SDS011;67773;50.806;8.776;2023-04-24T00:12:28;2.88;;;1.20;;
78484;SDS011;67773;50.806;8.776;2023-04-24T00:14:53;1.47;;;1.00;;
78484;SDS011;67773;50.806;8.776;2023-04-24T00:17:18;1.90;;;0.90;;
78484;SDS011;67773;50.806;8.776;2023-04-24T00:19:47;3.03;;;1.20;;
78484;SDS011;67773;50.806;8.776;2023-04-24T00:22:13;1.80;;;0.80;;
78484;SDS011;67773;50.806;8.776;2023-04-24T00:24:39;1.98;;;0.90;;
78484;SDS011;67773;50.806;8.776;2023-04-24T00:27:04;4.43;;;0.93;;
78484;SDS011;67773;50.806;8.776;2023-04-24T00:29:30;1.95;;;1.17;;
78484;SDS011;67773;50.806;8.776;2023-04-24T00:31:55;1.50;;;0.90;;
78484;SDS011;67773;50.806;8.776;2023-04-24T00:34:21;1.83;;;0.93;;
78484;SDS011;67773;50.806;8.776;2023-04-24T00:36:46;2.45;;;0.90;;
78484;SDS011;67773;50.806;8.776;2023-04-24T00:39:11;1.97;;;1.13;;
78484;SDS011;67773;50.806;8.776;2023-04-24T00:41:37;1.20;;;0.70;;
78484;SDS011;67773;50.806;8.776;2023-04-24T00:44:02;3.40;;;0.90;;
78484;SDS011;67773;50.806;8.776;2023-04-24T00:46:27;3.53;;;0.80;;
78484;SDS011;67773;50.806;8.776;2023-04-24T00:48:53;2.17;;;0.93;;
78484;SDS011;67773;50.806;8.776;2023-04-24T00:51:21;3.35;;;0.90;;
78484;SDS011;67773;50.806;8.776;2023-04-24T00:53:46;1.33;;;0.93;;
78484;SDS011;67773;50.806;8.776;2023-04-24T00:56:11;2.53;;;0.93;;
78484;SDS011;67773;50.806;8.776;2023-04-24T00:58:37;1.33;;;0.83;;
78484;SDS011;67773;50.806;8.776;2023-04-24T01:01:02;1.45;;;0.82;;
78484;SDS011;67773;50.806;8.776;2023-04-24T01:03:31;2.08;;;1.20;;
78484;SDS011;67773;50.806;8.776;2023-04-24T01:05:58;1.70;;;0.95;;
78484;SDS011;67773;50.806;8.776;2023-04-24T01:08:24;2.47;;;1.00;;
78484;SDS011;67773;50.806;8.776;2023-04-24T01:10:51;2.50;;;1.00;;
78484;SDS011;67773;50.806;8.776;2023-04-24T01:13:18;1.90;;;1.20;;
78484;SDS011;67773;50.806;8.776;2023-04-24T01:15:45;2.40;;;1.02;;
78484;SDS011;67773;50.806;8.776;2023-04-24T01:18:10;1.67;;;1.10;;
78484;SDS011;67773;50.806;8.776;2023-04-24T01:20:36;2.03;;;0.93;;
78484;SDS011;67773;50.806;8.776;2023-04-24T01:23:04;2.47;;;1.30;;
78484;SDS011;67773;50.806;8.776;2023-04-24T01:25:30;1.98;;;1.00;;
78484;SDS011;67773;50.806;8.776;2023-04-24T01:27:56;1.80;;;1.02;;
78484;SDS011;67773;50.806;8.776;2023-04-24T01:30:22;2.30;;;0.82;;
78484;SDS011;67773;50.806;8.776;2023-04-24T01:32:47;1.88;;;1.05;;
78484;SDS011;67773;50.806;8.776;2023-04-24T01:35:13;1.25;;;0.80;;
78484;SDS011;67773;50.806;8.776;2023-04-24T01:37:39;2.13;;;1.20;;
78484;SDS011;67773;50.806;8.776;2023-04-24T01:40:05;1.77;;;0.90;;
78484;SDS011;67773;50.806;8.776;2023-04-24T01:42:32;1.42;;;0.90;;
78484;SDS011;67773;50.806;8.776;2023-04-24T01:44:57;2.28;;;1.08;;
78484;SDS011;67773;50.806;8.776;2023-04-24T01:47:24;1.52;;;0.90;;
78484;SDS011;67773;50.806;8.776;2023-04-24T01:49:49;1.60;;;0.80;;
78484;SDS011;67773;50.806;8.776;2023-04-24T01:52:15;3.40;;;1.40;;
78484;SDS011;67773;50.806;8.776;2023-04-24T01:54:41;2.90;;;0.90;;
78484;SDS011;67773;50.806;8.776;2023-04-24T01:57:06;2.10;;;1.00;;
78484;SDS011;67773;50.806;8.776;2023-04-24T01:59:32;1.95;;;1.00;;
78484;SDS011;67773;50.806;8.776;2023-04-24T02:01:58;3.80;;;1.27;;
78484;SDS011;67773;50.806;8.776;2023-04-24T02:04:23;1.73;;;1.00;;
78484;SDS011;67773;50.806;8.776;2023-04-24T02:06:48;1.50;;;0.80;;
78484;SDS011;67773;50.806;8.776;2023-04-24T02:09:14;3.42;;;1.20;;
78484;SDS011;67773;50.806;8.776;2023-04-24T02:11:39;1.90;;;1.07;;
78484;SDS011;67773;50.806;8.776;2023-04-24T02:14:04;2.97;;;1.17;;
78484;SDS011;67773;50.806;8.776;2023-04-24T02:16:30;2.50;;;1.30;;
78484;SDS011;67773;50.806;8.776;2023-04-24T02:18:57;2.20;;;1.10;;
78484;SDS011;67773;50.806;8.776;2023-04-24T02:21:23;2.47;;;1.30;;
78484;SDS011;67773;50.806;8.776;2023-04-24T02:23:48;3.63;;;1.80;;
78484;SDS011;67773;50.806;8.776;2023-04-24T02:26:13;2.87;;;1.60;;
78484;SDS011;67773;50.806;8.776;2023-04-24T02:28:39;1.57;;;1.20;;
78484;SDS011;67773;50.806;8.776;2023-04-24T02:31:04;2.55;;;1.45;;
78484;SDS011;67773;50.806;8.776;2023-04-24T02:33:31;3.28;;;1.30;;
78484;SDS011;67773;50.806;8.776;2023-04-24T02:35:56;2.57;;;1.73;;
78484;SDS011;67773;50.806;8.776;2023-04-24T02:38:21;2.10;;;1.30;;
78484;SDS011;67773;50.806;8.776;2023-04-24T02:40:47;2.03;;;1.50;;
78484;SDS011;67773;50.806;8.776;2023-04-24T02:43:12;2.67;;;1.27;;
78484;SDS011;67773;50.806;8.776;2023-04-24T02:45:37;2.60;;;1.43;;
78484;SDS011;67773;50.806;8.776;2023-04-24T02:48:03;1.55;;;1.10;;
78484;SDS011;67773;50.806;8.776;2023-04-24T02:50:28;1.70;;;1.17;;
78484;SDS011;67773;50.806;8.776;2023-04-24T02:52:54;2.08;;;1.40;;
78484;SDS011;67773;50.806;8.776;2023-04-24T02:55:19;2.58;;;1.20;;
78484;SDS011;67773;50.806;8.776;2023-04-24T02:57:45;1.60;;;1.00;;
78484;SDS011;67773;50.806;8.776;2023-04-24T03:00:10;5.00;;;1.30;;
78484;SDS011;67773;50.806;8.776;2023-04-24T03:02:36;2.55;;;1.27;;
78484;SDS011;67773;50.806;8.776;2023-04-24T03:05:02;3.50;;;1.35;;
78484;SDS011;67773;50.806;8.776;2023-04-24T03:07:28;1.58;;;1.08;;
78484;SDS011;67773;50.806;8.776;2023-04-24T03:09:53;3.13;;;1.27;;
78484;SDS011;67773;50.806;8.776;2023-04-24T03:12:18;2.40;;;1.40;;
78484;SDS011;67773;50.806;8.776;2023-04-24T03:14:44;3.65;;;1.73;;
78484;SDS011;67773;50.806;8.776;2023-04-24T03:17:09;2.03;;;1.60;;
78484;SDS011;67773;50.806;8.776;2023-04-24T03:19:34;2.23;;;1.40;;
78484;SDS011;67773;50.806;8.776;2023-04-24T03:22:01;2.63;;;1.50;;
78484;SDS011;67773;50.806;8.776;2023-04-24T03:24:27;12.48;;;5.63;;
78484;SDS011;67773;50.806;8.776;2023-04-24T03:26:53;3.80;;;2.20;;
78484;SDS011;67773;50.806;8.776;2023-04-24T03:29:18;3.00;;;1.83;;
78484;SDS011;67773;50.806;8.776;2023-04-24T03:31:44;3.03;;;1.33;;
78484;SDS011;67773;50.806;8.776;2023-04-24T03:34:09;2.92;;;1.73;;
78484;SDS011;67773;50.806;8.776;2023-04-24T03:36:35;2.30;;;1.55;;
78484;SDS011;67773;50.806;8.776;2023-04-24T03:39:00;3.00;;;1.43;;
78484;SDS011;67773;50.806;8.776;2023-04-24T03:41:25;2.03;;;1.50;;
78484;SDS011;67773;50.806;8.776;2023-04-24T03:43:51;4.23;;;1.60;;
78484;SDS011;67773;50.806;8.776;2023-04-24T03:46:16;2.03;;;1.30;;
78484;SDS011;67773;50.806;8.776;2023-04-24T03:48:41;2.13;;;1.43;;
78484;SDS011;67773;50.806;8.776;2023-04-24T03:51:07;1.80;;;1.20;;
78484;SDS011;67773;50.806;8.776;2023-04-24T03:53:32;4.23;;;1.43;;
78484;SDS011;67773;50.806;8.776;2023-04-24T03:55:57;4.33;;;1.57;;
78484;SDS011;67773;50.806;8.776;2023-04-24T03:58:23;1.92;;;1.23;;
78484;SDS011;67773;50.806;8.776;2023-04-24T04:00:48;2.30;;;1.38;;
78484;SDS011;67773;50.806;8.776;2023-04-24T04:03:14;2.55;;;1.35;;
78484;SDS011;67773;50.806;8.776;2023-04-24T04:05:40;2.33;;;1.40;;
78484;SDS011;67773;50.806;8.776;2023-04-24T04:08:05;2.25;;;1.33;;
78484;SDS011;67773;50.806;8.776;2023-04-24T04:10:31;2.08;;;1.30;;
78484;SDS011;67773;50.806;8.776;2023-04-24T04:12:56;2.03;;;1.10;;
78484;SDS011;67773;50.806;8.776;2023-04-24T04:15:21;1.87;;;1.10;;
78484;SDS011;67773;50.806;8.776;2023-04-24T04:17:47;2.20;;;1.20;;
78484;SDS011;67773;50.806;8.776;2023-04-24T04:20:12;2.43;;;0.97;;
78484;SDS011;67773;50.806;8.776;2023-04-24T04:22:38;2.58;;;1.02;;
78484;SDS011;67773;50.806;8.776;2023-04-24T04:25:03;1.90;;;1.20;;
78484;SDS011;67773;50.806;8.776;2023-04-24T04:27:29;1.60;;;1.17;;
78484;SDS011;67773;50.806;8.776;2023-04-24T04:29:57;1.10;;;0.90;;
78484;SDS011;67773;50.806;8.776;2023-04-24T04:32:29;2.50;;;1.40;;
78484;SDS011;67773;50.806;8.776;2023-04-24T04:35:00;2.35;;;1.40;;
78484;SDS011;67773;50.806;8.776;2023-04-24T04:37:30;1.48;;;0.80;;
78484;SDS011;67773;50.806;8.776;2023-04-24T04:39:56;2.67;;;0.98;;
78484;SDS011;67773;50.806;8.776;2023-04-24T04:42:23;2.45;;;1.00;;
78484;SDS011;67773;50.806;8.776;2023-04-24T04:44:48;2.47;;;1.20;;
78484;SDS011;67773;50.806;8.776;2023-04-24T04:47:15;2.05;;;1.35;;
78484;SDS011;67773;50.806;8.776;2023-04-24T04:49:41;2.33;;;1.33;;
78484;SDS011;67773;50.806;8.776;2023-04-24T04:52:06;2.30;;;1.48;;
78484;SDS011;67773;50.806;8.776;2023-04-24T04:54:32;5.93;;;2.35;;
78484;SDS011;67773;50.806;8.776;2023-04-24T04:56:57;1.70;;;1.27;;
78484;SDS011;67773;50.806;8.776;2023-04-24T04:59:22;2.25;;;1.40;;
78484;SDS011;67773;50.806;8.776;2023-04-24T05:01:48;2.28;;;1.40;;
78484;SDS011;67773;50.806;8.776;2023-04-24T05:04:13;1.93;;;1.37;;
78484;SDS011;67773;50.806;8.776;2023-04-24T05:06:38;2.40;;;1.23;;
78484;SDS011;67773;50.806;8.776;2023-04-24T05:09:04;2.20;;;1.42;;
78484;SDS011;67773;50.806;8.776;2023-04-24T05:11:29;2.25;;;1.38;;
78484;SDS011;67773;50.806;8.776;2023-04-24T05:13:55;1.40;;;1.27;;
78484;SDS011;67773;50.806;8.776;2023-04-24T05:16:20;2.50;;;1.33;;
78484;SDS011;67773;50.806;8.776;2023-04-24T05:18:46;4.05;;;1.80;;
78484;SDS011;67773;50.806;8.776;2023-04-24T05:21:11;2.75;;;1.63;;
78484;SDS011;67773;50.806;8.776;2023-04-24T05:23:37;2.37;;;1.63;;
78484;SDS011;67773;50.806;8.776;2023-04-24T05:26:02;2.17;;;1.53;;
78484;SDS011;67773;50.806;8.776;2023-04-24T05:28:27;4.30;;;1.50;;
78484;SDS011;67773;50.806;8.776;2023-04-24T05:30:53;2.33;;;1.50;;
78484;SDS011;67773;50.806;8.776;2023-04-24T05:33:20;3.58;;;1.52;;
78484;SDS011;67773;50.806;8.776;2023-04-24T05:35:47;5.63;;;2.70;;
78484;SDS011;67773;50.806;8.776;2023-04-24T05:38:13;2.35;;;1.65;;
78484;SDS011;67773;50.806;8.776;2023-04-24T05:40:38;2.28;;;1.48;;
78484;SDS011;67773;50.806;8.776;2023-04-24T05:43:04;2.92;;;1.58;;
78484;SDS011;67773;50.806;8.776;2023-04-24T05:45:29;2.72;;;1.50;;
78484;SDS011;67773;50.806;8.776;2023-04-24T05:47:55;2.95;;;1.88;;
78484;SDS011;67773;50.806;8.776;2023-04-24T05:50:20;6.23;;;3.20;;
78484;SDS011;67773;50.806;8.776;2023-04-24T05:52:46;3.77;;;2.13;;
78484;SDS011;67773;50.806;8.776;2023-04-24T05:55:11;2.80;;;1.87;;
78484;SDS011;67773;50.806;8.776;2023-04-24T05:57:36;3.05;;;2.10;;
78484;SDS011;67773;50.806;8.776;2023-04-24T06:00:02;3.93;;;2.63;;
78484;SDS011;67773;50.806;8.776;2023-04-24T06:02:29;2.75;;;1.98;;
78484;SDS011;67773;50.806;8.776;2023-04-24T06:04:57;3.45;;;2.45;;
78484;SDS011;67773;50.806;8.776;2023-04-24T06:07:23;4.30;;;2.35;;
78484;SDS011;67773;50.806;8.776;2023-04-24T06:09:51;3.63;;;2.70;;
78484;SDS011;67773;50.806;8.776;2023-04-24T06:12:16;3.80;;;2.35;;
78484;SDS011;67773;50.806;8.776;2023-04-24T06:14:41;4.47;;;2.70;;
78484;SDS011;67773;50.806;8.776;2023-04-24T06:17:07;5.77;;;2.90;;
78484;SDS011;67773;50.806;8.776;2023-04-24T06:19:32;3.60;;;2.10;;
78484;SDS011;67773;50.806;8.776;2023-04-24T06:21:57;3.10;;;2.20;;
78484;SDS011;67773;50.806;8.776;2023-04-24T06:24:26;4.03;;;2.10;;
78484;SDS011;67773;50.806;8.776;2023-04-24T06:26:52;3.45;;;2.10;;
78484;SDS011;67773;50.806;8.776;2023-04-24T06:29:18;3.77;;;2.20;;
78484;SDS011;67773;50.806;8.776;2023-04-24T06:31:43;3.22;;;2.38;;
78484;SDS011;67773;50.806;8.776;2023-04-24T06:34:08;2.97;;;2.07;;
78484;SDS011;67773;50.806;8.776;2023-04-24T06:36:34;4.93;;;1.77;;
78484;SDS011;67773;50.806;8.776;2023-04-24T06:39:00;3.22;;;2.05;;
78484;SDS011;67773;50.806;8.776;2023-04-24T06:41:26;2.45;;;2.03;;
78484;SDS011;67773;50.806;8.776;2023-04-24T06:43:51;2.57;;;1.90;;
78484;SDS011;67773;50.806;8.776;2023-04-24T06:46:16;2.65;;;1.50;;
78484;SDS011;67773;50.806;8.776;2023-04-24T06:48:42;2.67;;;2.13;;
78484;SDS011;67773;50.806;8.776;2023-04-24T06:51:07;3.88;;;2.17;;
78484;SDS011;67773;50.806;8.776;2023-04-24T06:53:32;5.10;;;2.75;;
78484;SDS011;67773;50.806;8.776;2023-04-24T06:55:58;3.60;;;2.30;;
78484;SDS011;67773;50.806;8.776;2023-04-24T06:58:24;4.03;;;2.10;;
78484;SDS011;67773;50.806;8.776;2023-04-24T07:00:50;3.28;;;2.53;;
78484;SDS011;67773;50.806;8.776;2023-04-24T07:03:15;4.83;;;2.07;;
78484;SDS011;67773;50.806;8.776;2023-04-24T07:05:41;4.10;;;2.23;;
78484;SDS011;67773;50.806;8.776;2023-04-24T07:08:06;4.15;;;2.78;;
78484;SDS011;67773;50.806;8.776;2023-04-24T07:10:32;8.90;;;4.20;;
78484;SDS011;67773;50.806;8.776;2023-04-24T07:13:00;6.00;;;2.90;;
78484;SDS011;67773;50.806;8.776;2023-04-24T07:15:26;3.15;;;1.75;;
78484;SDS011;67773;50.806;8.776;2023-04-24T07:17:51;3.00;;;2.10;;
78484;SDS011;67773;50.806;8.776;2023-04-24T07:20:17;3.53;;;2.00;;
78484;SDS011;67773;50.806;8.776;2023-04-24T07:22:42;3.43;;;2.30;;
78484;SDS011;67773;50.806;8.776;2023-04-24T07:25:08;3.50;;;1.95;;
78484;SDS011;67773;50.806;8.776;2023-04-24T07:27:34;3.22;;;1.98;;
78484;SDS011;67773;50.806;8.776;2023-04-24T07:30:00;3.72;;;2.20;;
78484;SDS011;67773;50.806;8.776;2023-04-24T07:32:26;3.67;;;2.35;;
78484;SDS011;67773;50.806;8.776;2023-04-24T07:34:51;3.93;;;2.50;;
78484;SDS011;67773;50.806;8.776;2023-04-24T07:37:17;6.00;;;2.40;;
78484;SDS011;67773;50.806;8.776;2023-04-24T07:39:42;5.50;;;3.35;;
78484;SDS011;67773;50.806;8.776;2023-04-24T07:42:08;3.58;;;2.47;;
78484;SDS011;67773;50.806;8.776;2023-04-24T07:44:33;4.07;;;3.08;;
78484;SDS011;67773;50.806;8.776;2023-04-24T07:46:58;3.97;;;2.63;;
78484;SDS011;67773;50.806;8.776;2023-04-24T07:49:23;3.93;;;2.47;;
78484;SDS011;67773;50.806;8.776;2023-04-24T07:51:49;3.90;;;2.67;;
78484;SDS011;67773;50.806;8.776;2023-04-24T07:54:15;6.38;;;3.15;;
78484;SDS011;67773;50.806;8.776;2023-04-24T07:56:41;3.55;;;2.33;;
78484;SDS011;67773;50.806;8.776;2023-04-24T08:02:10;7.00;;;4.43;;
78484;SDS011;67773;50.806;8.776;2023-04-24T08:04:35;6.90;;;3.80;;
78484;SDS011;67773;50.806;8.776;2023-04-24T08:07:01;4.93;;;2.70;;
78484;SDS011;67773;50.806;8.776;2023-04-24T08:09:26;4.20;;;2.67;;
78484;SDS011;67773;50.806;8.776;2023-04-24T08:11:51;4.77;;;3.17;;
78484;SDS011;67773;50.806;8.776;2023-04-24T08:14:18;4.97;;;2.60;;
78484;SDS011;67773;50.806;8.776;2023-04-24T08:16:43;3.07;;;2.03;;
78484;SDS011;67773;50.806;8.776;2023-04-24T08:19:08;4.53;;;2.87;;
78484;SDS011;67773;50.806;8.776;2023-04-24T08:21:34;4.68;;;3.00;;
78484;SDS011;67773;50.806;8.776;2023-04-24T08:23:59;5.20;;;2.73;;
78484;SDS011;67773;50.806;8.776;2023-04-24T08:26:25;3.40;;;2.38;;
78484;SDS011;67773;50.806;8.776;2023-04-24T08:28:50;4.00;;;2.37;;
78484;SDS011;67773;50.806;8.776;2023-04-24T08:31:16;5.80;;;2.67;;
78484;SDS011;67773;50.806;8.776;2023-04-24T08:33:41;3.00;;;2.00;;
78484;SDS011;67773;50.806;8.776;2023-04-24T08:36:06;3.17;;;2.23;;
78484;SDS011;67773;50.806;8.776;2023-04-24T08:38:32;4.90;;;2.38;;
78484;SDS011;67773;50.806;8.776;2023-04-24T08:40:58;3.22;;;2.50;;
78484;SDS011;67773;50.806;8.776;2023-04-24T08:43:25;2.78;;;2.05;;
78484;SDS011;67773;50.806;8.776;2023-04-24T08:45:51;6.60;;;3.80;;
78484;SDS011;67773;50.806;8.776;2023-04-24T08:48:17;6.00;;;2.50;;
78484;SDS011;67773;50.806;8.776;2023-04-24T08:50:43;3.75;;;2.47;;
78484;SDS011;67773;50.806;8.776;2023-04-24T08:53:09;4.95;;;2.60;;
78484;SDS011;67773;50.806;8.776;2023-04-24T08:55:35;3.05;;;2.10;;
78484;SDS011;67773;50.806;8.776;2023-04-24T08:58:01;2.67;;;1.73;;
78484;SDS011;67773;50.806;8.776;2023-04-24T09:00:28;3.05;;;2.15;;
78484;SDS011;67773;50.806;8.776;2023-04-24T09:02:53;2.53;;;1.98;;
78484;SDS011;67773;50.806;8.776;2023-04-24T09:05:20;3.05;;;2.17;;
78484;SDS011;67773;50.806;8.776;2023-04-24T09:07:52;3.20;;;2.42;;
78484;SDS011;67773;50.806;8.776;2023-04-24T09:10:19;3.45;;;2.38;;
78484;SDS011;67773;50.806;8.776;2023-04-24T09:12:46;2.90;;;2.00;;
78484;SDS011;67773;50.806;8.776;2023-04-24T09:15:11;3.08;;;2.15;;
78484;SDS011;67773;50.806;8.776;2023-04-24T09:17:37;2.47;;;2.13;;
78484;SDS011;67773;50.806;8.776;2023-04-24T09:20:03;3.83;;;2.53;;
78484;SDS011;67773;50.806;8.776;2023-04-24T09:22:29;3.13;;;2.15;;
78484;SDS011;67773;50.806;8.776;2023-04-24T09:25:08;4.70;;;2.40;;
78484;SDS011;67773;50.806;8.776;2023-04-24T09:27:34;4.13;;;3.00;;
78484;SDS011;67773;50.806;8.776;2023-04-24T09:30:00;7.43;;;2.72;;
78484;SDS011;67773;50.806;8.776;2023-04-24T09:32:26;3.53;;;2.13;;
78484;SDS011;67773;50.806;8.776;2023-04-24T09:35:08;3.20;;;1.88;;
78484;SDS011;67773;50.806;8.776;2023-04-24T09:37:43;3.15;;;1.42;;
78484;SDS011;67773;50.806;8.776;2023-04-24T09:42:39;3.13;;;2.08;;
78484;SDS011;67773;50.806;8.776;2023-04-24T09:45:09;2.15;;;1.40;;
78484;SDS011;67773;50.806;8.776;2023-04-24T09:47:38;3.25;;;1.98;;
78484;SDS011;67773;50.806;8.776;2023-04-24T09:50:10;2.13;;;1.50;;
78484;SDS011;67773;50.806;8.776;2023-04-24T09:55:39;3.47;;;1.70;;
78484;SDS011;67773;50.806;8.776;2023-04-24T09:58:09;1.80;;;1.02;;
78484;SDS011;67773;50.806;8.776;2023-04-24T10:00:35;1.65;;;1.10;;
78484;SDS011;67773;50.806;8.776;2023-04-24T10:03:01;1.67;;;1.10;;
78484;SDS011;67773;50.806;8.776;2023-04-24T10:05:28;2.00;;;1.17;;
78484;SDS011;67773;50.806;8.776;2023-04-24T10:08:30;1.30;;;0.82;;
78484;SDS011;67773;50.806;8.776;2023-04-24T10:10:50;2.05;;;0.90;;
78484;SDS011;67773;50.806;8.776;2023-04-24T10:13:15;1.30;;;0.90;;
78484;SDS011;67773;50.806;8.776;2023-04-24T10:15:41;2.85;;;0.77;;
78484;SDS011;67773;50.806;8.776;2023-04-24T10:18:07;1.77;;;0.70;;
78484;SDS011;67773;50.806;8.776;2023-04-24T10:20:34;2.58;;;1.90;;
78484;SDS011;67773;50.806;8.776;2023-04-24T10:23:02;2.53;;;0.90;;
78484;SDS011;67773;50.806;8.776;2023-04-24T10:25:30;2.38;;;1.00;;
78484;SDS011;67773;50.806;8.776;2023-04-24T10:27:57;2.15;;;1.10;;
78484;SDS011;67773;50.806;8.776;2023-04-24T10:30:27;1.30;;;0.90;;
78484;SDS011;67773;50.806;8.776;2023-04-24T10:32:54;1.02;;;0.63;;
78484;SDS011;67773;50.806;8.776;2023-04-24T10:35:20;1.33;;;0.80;;
78484;SDS011;67773;50.806;8.776;2023-04-24T10:37:50;0.70;;;0.40;;
78484;SDS011;67773;50.806;8.776;2023-04-24T10:40:36;1.67;;;0.50;;
78484;SDS011;67773;50.806;8.776;2023-04-24T10:43:02;1.15;;;0.40;;
78484;SDS011;67773;50.806;8.776;2023-04-24T10:45:38;0.50;;;0.20;;
78484;SDS011;67773;50.806;8.776;2023-04-24T10:48:04;1.38;;;0.20;;
78484;SDS011;67773;50.806;8.776;2023-04-24T10:50:45;0.60;;;0.32;;
78484;SDS011;67773;50.806;8.776;2023-04-24T10:53:15;0.43;;;0.10;;
78484;SDS011;67773;50.806;8.776;2023-04-24T10:55:44;0.75;;;0.10;;
78484;SDS011;67773;50.806;8.776;2023-04-24T10:58:14;1.80;;;1.02;;
78484;SDS011;67773;50.806;8.776;2023-04-24T11:00:41;1.25;;;0.55;;
78484;SDS011;67773;50.806;8.776;2023-04-24T11:03:25;0.45;;;0.10;;
78484;SDS011;67773;50.806;8.776;2023-04-24T11:13:23;0.30;;;0.10;;
78484;SDS011;67773;50.806;8.776;2023-04-24T11:18:39;0.30;;;0.10;;
78484;SDS011;67773;50.806;8.776;2023-04-24T11:21:17;0.10;;;0.10;;
78484;SDS011;67773;50.806;8.776;2023-04-24T11:23:43;0.50;;;0.30;;
78484;SDS011;67773;50.806;8.776;2023-04-24T11:26:09;0.40;;;0.20;;
78484;SDS011;67773;50.806;8.776;2023-04-24T11:28:36;0.52;;;0.10;;
78484;SDS011;67773;50.806;8.776;2023-04-24T11:34:05;0.60;;;0.20;;
78484;SDS011;67773;50.806;8.776;2023-04-24T11:36:31;0.40;;;0.20;;
78484;SDS011;67773;50.806;8.776;2023-04-24T11:38:57;0.32;;;0.20;;
78484;SDS011;67773;50.806;8.776;2023-04-24T11:41:23;1.25;;;0.30;;
78484;SDS011;67773;50.806;8.776;2023-04-24T11:43:48;0.70;;;0.30;;
78484;SDS011;67773;50.806;8.776;2023-04-24T11:46:16;0.38;;;0.20;;
78484;SDS011;67773;50.806;8.776;2023-04-24T11:48:44;0.50;;;0.30;;
78484;SDS011;67773;50.806;8.776;2023-04-24T11:51:11;1.10;;;0.30;;
78484;SDS011;67773;50.806;8.776;2023-04-24T11:53:37;0.90;;;0.40;;
78484;SDS011;67773;50.806;8.776;2023-04-24T11:56:03;0.68;;;0.30;;
78484;SDS011;67773;50.806;8.776;2023-04-24T11:58:34;1.27;;;0.40;;
78484;SDS011;67773;50.806;8.776;2023-04-24T12:01:00;0.60;;;0.32;;
78484;SDS011;67773;50.806;8.776;2023-04-24T12:03:26;0.88;;;0.35;;
78484;SDS011;67773;50.806;8.776;2023-04-24T12:05:51;3.50;;;1.75;;
78484;SDS011;67773;50.806;8.776;2023-04-24T12:08:29;1.52;;;0.60;;
78484;SDS011;67773;50.806;8.776;2023-04-24T12:10:54;1.80;;;0.75;;
78484;SDS011;67773;50.806;8.776;2023-04-24T12:13:19;2.47;;;1.20;;
78484;SDS011;67773;50.806;8.776;2023-04-24T12:15:45;1.55;;;0.90;;
78484;SDS011;67773;50.806;8.776;2023-04-24T12:18:13;0.83;;;0.67;;
78484;SDS011;67773;50.806;8.776;2023-04-24T12:20:41;1.42;;;0.85;;
78484;SDS011;67773;50.806;8.776;2023-04-24T12:23:07;2.83;;;1.13;;
78484;SDS011;67773;50.806;8.776;2023-04-24T12:25:32;1.70;;;1.07;;
78484;SDS011;67773;50.806;8.776;2023-04-24T12:30:33;1.85;;;1.10;;
78484;SDS011;67773;50.806;8.776;2023-04-24T12:33:13;1.52;;;1.02;;
78484;SDS011;67773;50.806;8.776;2023-04-24T12:35:42;2.50;;;1.15;;
78484;SDS011;67773;50.806;8.776;2023-04-24T12:38:08;1.70;;;1.20;;
78484;SDS011;67773;50.806;8.776;2023-04-24T12:40:35;2.33;;;1.67;;
78484;SDS011;67773;50.806;8.776;2023-04-24T12:43:01;2.20;;;1.20;;
78484;SDS011;67773;50.806;8.776;2023-04-24T12:45:26;4.07;;;2.53;;
78484;SDS011;67773;50.806;8.776;2023-04-24T12:47:53;3.45;;;1.73;;
78484;SDS011;67773;50.806;8.776;2023-04-24T12:50:18;2.53;;;1.60;;
78484;SDS011;67773;50.806;8.776;2023-04-24T12:52:44;3.10;;;1.63;;
78484;SDS011;67773;50.806;8.776;2023-04-24T12:55:10;3.13;;;1.52;;
78484;SDS011;67773;50.806;8.776;2023-04-24T12:57:37;3.47;;;1.60;;
78484;SDS011;67773;50.806;8.776;2023-04-24T13:00:04;2.65;;;1.75;;
78484;SDS011;67773;50.806;8.776;2023-04-24T13:02:31;3.67;;;1.80;;
78484;SDS011;67773;50.806;8.776;2023-04-24T13:04:58;2.72;;;1.83;;
78484;SDS011;67773;50.806;8.776;2023-04-24T13:07:24;2.15;;;1.40;;
78484;SDS011;67773;50.806;8.776;2023-04-24T13:09:50;2.88;;;1.17;;
78484;SDS011;67773;50.806;8.776;2023-04-24T13:12:16;1.85;;;1.40;;
78484;SDS011;67773;50.806;8.776;2023-04-24T13:14:42;1.73;;;1.33;;
78484;SDS011;67773;50.806;8.776;2023-04-24T13:17:07;2.63;;;1.00;;
78484;SDS011;67773;50.806;8.776;2023-04-24T13:19:39;1.90;;;1.02;;
78484;SDS011;67773;50.806;8.776;2023-04-24T13:22:05;2.35;;;1.13;;
78484;SDS011;67773;50.806;8.776;2023-04-24T13:24:32;1.45;;;1.13;;
78484;SDS011;67773;50.806;8.776;2023-04-24T13:26:58;3.47;;;1.33;;
78484;SDS011;67773;50.806;8.776;2023-04-24T13:29:24;2.38;;;1.42;;
78484;SDS011;67773;50.806;8.776;2023-04-24T13:31:52;2.97;;;1.55;;
78484;SDS011;67773;50.806;8.776;2023-04-24T13:34:25;2.58;;;1.60;;
78484;SDS011;67773;50.806;8.776;2023-04-24T13:36:52;4.55;;;2.00;;
78484;SDS011;67773;50.806;8.776;2023-04-24T13:39:19;2.15;;;1.23;;
78484;SDS011;67773;50.806;8.776;2023-04-24T13:41:44;2.00;;;1.33;;
78484;SDS011;67773;50.806;8.776;2023-04-24T13:44:12;3.20;;;1.50;;
78484;SDS011;67773;50.806;8.776;2023-04-24T13:46:37;2.43;;;1.30;;
78484;SDS011;67773;50.806;8.776;2023-04-24T13:49:02;1.80;;;1.20;;
78484;SDS011;67773;50.806;8.776;2023-04-24T13:51:28;4.25;;;1.65;;
78484;SDS011;67773;50.806;8.776;2023-04-24T13:53:54;1.85;;;1.10;;
78484;SDS011;67773;50.806;8.776;2023-04-24T13:56:20;2.53;;;1.10;;
78484;SDS011;67773;50.806;8.776;2023-04-24T13:58:45;1.98;;;1.10;;
78484;SDS011;67773;50.806;8.776;2023-04-24T14:01:11;3.70;;;1.20;;
78484;SDS011;67773;50.806;8.776;2023-04-24T14:03:37;2.33;;;1.27;;
78484;SDS011;67773;50.806;8.776;2023-04-24T14:06:03;2.97;;;1.35;;
78484;SDS011;67773;50.806;8.776;2023-04-24T14:08:28;3.10;;;1.85;;
78484;SDS011;67773;50.806;8.776;2023-04-24T14:10:53;3.47;;;1.57;;
78484;SDS011;67773;50.806;8.776;2023-04-24T14:13:19;3.25;;;1.83;;
78484;SDS011;67773;50.806;8.776;2023-04-24T14:15:45;2.83;;;1.63;;
78484;SDS011;67773;50.806;8.776;2023-04-24T14:18:10;4.20;;;1.70;;
78484;SDS011;67773;50.806;8.776;2023-04-24T14:20:35;3.27;;;1.80;;
78484;SDS011;67773;50.806;8.776;2023-04-24T14:23:01;2.33;;;1.60;;
78484;SDS011;67773;50.806;8.776;2023-04-24T14:25:26;2.80;;;1.73;;
78484;SDS011;67773;50.806;8.776;2023-04-24T14:27:52;2.85;;;1.52;;
78484;SDS011;67773;50.806;8.776;2023-04-24T14:30:17;2.95;;;1.73;;
78484;SDS011;67773;50.806;8.776;2023-04-24T14:32:43;3.20;;;1.70;;
78484;SDS011;67773;50.806;8.776;2023-04-24T14:35:09;3.25;;;1.85;;
78484;SDS011;67773;50.806;8.776;2023-04-24T14:37:34;3.50;;;1.85;;
78484;SDS011;67773;50.806;8.776;2023-04-24T14:40:01;4.90;;;2.58;;
78484;SDS011;67773;50.806;8.776;2023-04-24T14:42:26;5.72;;;2.38;;
78484;SDS011;67773;50.806;8.776;2023-04-24T14:44:53;5.45;;;2.15;;
78484;SDS011;67773;50.806;8.776;2023-04-24T14:47:19;3.50;;;1.95;;
78484;SDS011;67773;50.806;8.776;2023-04-24T14:49:46;8.02;;;1.95;;
78484;SDS011;67773;50.806;8.776;2023-04-24T14:52:12;3.42;;;2.10;;
78484;SDS011;67773;50.806;8.776;2023-04-24T14:54:37;3.13;;;1.90;;
78484;SDS011;67773;50.806;8.776;2023-04-24T14:57:02;2.53;;;1.83;;
78484;SDS011;67773;50.806;8.776;2023-04-24T14:59:28;2.15;;;1.50;;
78484;SDS011;67773;50.806;8.776;2023-04-24T15:01:53;1.95;;;1.55;;
78484;SDS011;67773;50.806;8.776;2023-04-24T15:04:22;2.75;;;1.75;;
78484;SDS011;67773;50.806;8.776;2023-04-24T15:06:51;2.65;;;1.38;;